sensor_id;sensor_type;location;lat;lon;timestamp;P1;durP1;ratioP1;P2;durP2;ratioP2
58302;SDS011;44109;52.398;7.024;2022-10-31T00:01:24;17.17;;;10.43;;
58302;SDS011;44109;52.398;7.024;2022-10-31T00:03:55;13.68;;;9.77;;
58302;SDS011;44109;52.398;7.024;2022-10-31T00:06:22;17.20;;;10.85;;
58302;SDS011;44109;52.398;7.024;2022-10-31T00:08:51;17.10;;;11.13;;
58302;SDS011;44109;52.398;7.024;2022-10-31T00:11:22;18.60;;;12.60;;
58302;SDS011;44109;52.398;7.024;2022-10-31T00:13:52;19.67;;;11.45;;
58302;SDS011;44109;52.398;7.024;2022-10-31T00:16:20;20.45;;;11.30;;
58302;SDS011;44109;52.398;7.024;2022-10-31T00:18:49;18.70;;;11.68;;
58302;SDS011;44109;52.398;7.024;2022-10-31T00:21:18;19.10;;;12.25;;
58302;SDS011;44109;52.398;7.024;2022-10-31T00:23:46;16.75;;;11.10;;
58302;SDS011;44109;52.398;7.024;2022-10-31T00:26:14;16.42;;;11.07;;
58302;SDS011;44109;52.398;7.024;2022-10-31T00:28:42;19.55;;;10.57;;
58302;SDS011;44109;52.398;7.024;2022-10-31T00:31:12;15.88;;;10.05;;
58302;SDS011;44109;52.398;7.024;2022-10-31T00:33:40;17.95;;;10.35;;
58302;SDS011;44109;52.398;7.024;2022-10-31T00:36:10;19.98;;;11.68;;
58302;SDS011;44109;52.398;7.024;2022-10-31T00:38:40;17.35;;;11.88;;
58302;SDS011;44109;52.398;7.024;2022-10-31T00:41:08;16.33;;;10.40;;
58302;SDS011;44109;52.398;7.024;2022-10-31T00:43:36;18.63;;;10.20;;
58302;SDS011;44109;52.398;7.024;2022-10-31T00:46:04;15.65;;;10.57;;
58302;SDS011;44109;52.398;7.024;2022-10-31T00:48:33;19.83;;;11.63;;
58302;SDS011;44109;52.398;7.024;2022-10-31T00:51:01;16.98;;;10.82;;
58302;SDS011;44109;52.398;7.024;2022-10-31T00:53:28;17.15;;;10.43;;
58302;SDS011;44109;52.398;7.024;2022-10-31T00:55:56;15.93;;;10.20;;
58302;SDS011;44109;52.398;7.024;2022-10-31T00:58:23;19.70;;;12.38;;
58302;SDS011;44109;52.398;7.024;2022-10-31T01:00:51;16.95;;;10.75;;
58302;SDS011;44109;52.398;7.024;2022-10-31T01:03:21;15.30;;;8.25;;
58302;SDS011;44109;52.398;7.024;2022-10-31T01:05:58;16.58;;;10.30;;
58302;SDS011;44109;52.398;7.024;2022-10-31T01:08:27;16.95;;;9.80;;
58302;SDS011;44109;52.398;7.024;2022-10-31T01:11:02;16.08;;;9.48;;
58302;SDS011;44109;52.398;7.024;2022-10-31T01:13:34;12.30;;;8.35;;
58302;SDS011;44109;52.398;7.024;2022-10-31T01:16:02;15.02;;;9.52;;
58302;SDS011;44109;52.398;7.024;2022-10-31T01:18:32;17.38;;;10.00;;
58302;SDS011;44109;52.398;7.024;2022-10-31T01:21:03;14.43;;;9.07;;
58302;SDS011;44109;52.398;7.024;2022-10-31T01:23:34;15.60;;;8.98;;
58302;SDS011;44109;52.398;7.024;2022-10-31T01:26:03;14.27;;;9.63;;
58302;SDS011;44109;52.398;7.024;2022-10-31T01:28:35;13.43;;;8.98;;
58302;SDS011;44109;52.398;7.024;2022-10-31T01:31:06;12.60;;;8.75;;
58302;SDS011;44109;52.398;7.024;2022-10-31T01:33:35;18.35;;;11.13;;
58302;SDS011;44109;52.398;7.024;2022-10-31T01:36:12;15.63;;;9.27;;
58302;SDS011;44109;52.398;7.024;2022-10-31T01:38:44;12.90;;;8.77;;
58302;SDS011;44109;52.398;7.024;2022-10-31T01:41:13;15.07;;;8.80;;
58302;SDS011;44109;52.398;7.024;2022-10-31T01:43:44;18.70;;;10.60;;
58302;SDS011;44109;52.398;7.024;2022-10-31T01:46:15;13.18;;;8.48;;
58302;SDS011;44109;52.398;7.024;2022-10-31T01:48:49;14.07;;;9.05;;
58302;SDS011;44109;52.398;7.024;2022-10-31T01:51:28;13.50;;;8.75;;
58302;SDS011;44109;52.398;7.024;2022-10-31T01:54:02;15.80;;;9.32;;
58302;SDS011;44109;52.398;7.024;2022-10-31T01:56:37;14.38;;;8.45;;
58302;SDS011;44109;52.398;7.024;2022-10-31T01:59:10;15.05;;;9.68;;
58302;SDS011;44109;52.398;7.024;2022-10-31T02:01:44;14.98;;;9.02;;
58302;SDS011;44109;52.398;7.024;2022-10-31T02:04:12;12.10;;;8.48;;
58302;SDS011;44109;52.398;7.024;2022-10-31T02:06:43;10.15;;;7.13;;
58302;SDS011;44109;52.398;7.024;2022-10-31T02:09:16;14.82;;;8.38;;
58302;SDS011;44109;52.398;7.024;2022-10-31T02:11:49;12.23;;;7.65;;
58302;SDS011;44109;52.398;7.024;2022-10-31T02:14:19;12.45;;;9.15;;
58302;SDS011;44109;52.398;7.024;2022-10-31T02:16:49;11.75;;;8.13;;
58302;SDS011;44109;52.398;7.024;2022-10-31T02:19:18;13.57;;;8.30;;
58302;SDS011;44109;52.398;7.024;2022-10-31T02:21:59;10.75;;;8.25;;
58302;SDS011;44109;52.398;7.024;2022-10-31T02:24:40;11.43;;;8.52;;
58302;SDS011;44109;52.398;7.024;2022-10-31T02:27:26;11.50;;;8.38;;
58302;SDS011;44109;52.398;7.024;2022-10-31T02:30:21;14.65;;;9.73;;
58302;SDS011;44109;52.398;7.024;2022-10-31T02:32:58;12.23;;;7.70;;
58302;SDS011;44109;52.398;7.024;2022-10-31T02:35:44;13.43;;;8.70;;
58302;SDS011;44109;52.398;7.024;2022-10-31T02:38:31;15.05;;;8.68;;
58302;SDS011;44109;52.398;7.024;2022-10-31T02:41:18;14.48;;;9.40;;
58302;SDS011;44109;52.398;7.024;2022-10-31T02:43:58;13.43;;;8.60;;
58302;SDS011;44109;52.398;7.024;2022-10-31T02:46:37;16.80;;;10.07;;
58302;SDS011;44109;52.398;7.024;2022-10-31T02:49:18;14.68;;;9.45;;
58302;SDS011;44109;52.398;7.024;2022-10-31T02:51:53;18.05;;;9.35;;
58302;SDS011;44109;52.398;7.024;2022-10-31T02:54:21;13.68;;;9.48;;
58302;SDS011;44109;52.398;7.024;2022-10-31T02:56:54;12.73;;;9.02;;
58302;SDS011;44109;52.398;7.024;2022-10-31T02:59:30;13.93;;;9.02;;
58302;SDS011;44109;52.398;7.024;2022-10-31T03:02:06;14.50;;;9.88;;
58302;SDS011;44109;52.398;7.024;2022-10-31T03:08:04;14.30;;;8.57;;
58302;SDS011;44109;52.398;7.024;2022-10-31T03:10:43;16.17;;;9.75;;
58302;SDS011;44109;52.398;7.024;2022-10-31T03:13:21;13.07;;;8.85;;
58302;SDS011;44109;52.398;7.024;2022-10-31T03:16:02;12.45;;;9.05;;
58302;SDS011;44109;52.398;7.024;2022-10-31T03:18:39;13.50;;;8.27;;
58302;SDS011;44109;52.398;7.024;2022-10-31T03:21:18;11.52;;;7.20;;
58302;SDS011;44109;52.398;7.024;2022-10-31T03:23:51;14.90;;;8.65;;
58302;SDS011;44109;52.398;7.024;2022-10-31T03:26:21;13.60;;;8.30;;
58302;SDS011;44109;52.398;7.024;2022-10-31T03:28:53;16.30;;;9.10;;
58302;SDS011;44109;52.398;7.024;2022-10-31T03:31:27;12.85;;;8.93;;
58302;SDS011;44109;52.398;7.024;2022-10-31T03:33:59;13.40;;;8.30;;
58302;SDS011;44109;52.398;7.024;2022-10-31T03:36:31;12.80;;;9.00;;
58302;SDS011;44109;52.398;7.024;2022-10-31T03:39:05;14.38;;;8.93;;
58302;SDS011;44109;52.398;7.024;2022-10-31T03:41:42;14.15;;;9.05;;
58302;SDS011;44109;52.398;7.024;2022-10-31T03:44:16;13.63;;;9.15;;
58302;SDS011;44109;52.398;7.024;2022-10-31T03:46:48;12.27;;;8.00;;
58302;SDS011;44109;52.398;7.024;2022-10-31T03:49:16;13.98;;;8.75;;
58302;SDS011;44109;52.398;7.024;2022-10-31T03:51:46;20.00;;;11.18;;
58302;SDS011;44109;52.398;7.024;2022-10-31T03:54:23;13.05;;;8.57;;
58302;SDS011;44109;52.398;7.024;2022-10-31T03:57:00;12.10;;;8.10;;
58302;SDS011;44109;52.398;7.024;2022-10-31T03:59:40;12.77;;;7.43;;
58302;SDS011;44109;52.398;7.024;2022-10-31T04:04:45;11.63;;;7.00;;
58302;SDS011;44109;52.398;7.024;2022-10-31T04:07:17;11.93;;;7.93;;
58302;SDS011;44109;52.398;7.024;2022-10-31T04:09:49;16.23;;;8.20;;
58302;SDS011;44109;52.398;7.024;2022-10-31T04:12:20;14.13;;;7.93;;
58302;SDS011;44109;52.398;7.024;2022-10-31T04:14:55;10.53;;;6.97;;
58302;SDS011;44109;52.398;7.024;2022-10-31T04:17:25;12.95;;;7.07;;
58302;SDS011;44109;52.398;7.024;2022-10-31T04:19:59;11.75;;;7.43;;
58302;SDS011;44109;52.398;7.024;2022-10-31T04:22:28;11.88;;;7.22;;
58302;SDS011;44109;52.398;7.024;2022-10-31T04:24:55;9.13;;;6.00;;
58302;SDS011;44109;52.398;7.024;2022-10-31T04:27:23;8.93;;;5.05;;
58302;SDS011;44109;52.398;7.024;2022-10-31T04:29:51;9.90;;;5.70;;
58302;SDS011;44109;52.398;7.024;2022-10-31T04:32:18;7.10;;;4.93;;
58302;SDS011;44109;52.398;7.024;2022-10-31T04:34:45;9.35;;;4.30;;
58302;SDS011;44109;52.398;7.024;2022-10-31T04:37:13;7.63;;;5.07;;
58302;SDS011;44109;52.398;7.024;2022-10-31T04:39:42;8.88;;;5.30;;
58302;SDS011;44109;52.398;7.024;2022-10-31T04:42:09;6.93;;;5.15;;
58302;SDS011;44109;52.398;7.024;2022-10-31T04:44:37;8.23;;;5.20;;
58302;SDS011;44109;52.398;7.024;2022-10-31T04:47:04;9.05;;;5.47;;
58302;SDS011;44109;52.398;7.024;2022-10-31T04:49:32;8.85;;;5.82;;
58302;SDS011;44109;52.398;7.024;2022-10-31T04:51:59;8.93;;;5.20;;
58302;SDS011;44109;52.398;7.024;2022-10-31T04:54:27;9.07;;;5.65;;
58302;SDS011;44109;52.398;7.024;2022-10-31T04:56:56;9.48;;;5.57;;
58302;SDS011;44109;52.398;7.024;2022-10-31T04:59:23;9.23;;;6.20;;
58302;SDS011;44109;52.398;7.024;2022-10-31T05:01:51;11.57;;;6.25;;
58302;SDS011;44109;52.398;7.024;2022-10-31T05:04:18;14.00;;;7.50;;
58302;SDS011;44109;52.398;7.024;2022-10-31T05:06:46;12.07;;;7.53;;
58302;SDS011;44109;52.398;7.024;2022-10-31T05:09:13;12.55;;;7.75;;
58302;SDS011;44109;52.398;7.024;2022-10-31T05:11:41;11.85;;;7.53;;
58302;SDS011;44109;52.398;7.024;2022-10-31T05:14:10;9.75;;;6.70;;
58302;SDS011;44109;52.398;7.024;2022-10-31T05:16:38;9.93;;;7.03;;
58302;SDS011;44109;52.398;7.024;2022-10-31T05:19:05;11.23;;;6.93;;
58302;SDS011;44109;52.398;7.024;2022-10-31T05:21:33;10.73;;;7.57;;
58302;SDS011;44109;52.398;7.024;2022-10-31T05:24:00;16.08;;;7.10;;
58302;SDS011;44109;52.398;7.024;2022-10-31T05:26:28;8.85;;;5.97;;
58302;SDS011;44109;52.398;7.024;2022-10-31T05:28:55;11.88;;;7.05;;
58302;SDS011;44109;52.398;7.024;2022-10-31T05:31:24;11.43;;;6.55;;
58302;SDS011;44109;52.398;7.024;2022-10-31T05:33:52;10.20;;;6.63;;
58302;SDS011;44109;52.398;7.024;2022-10-31T05:36:19;10.70;;;6.68;;
58302;SDS011;44109;52.398;7.024;2022-10-31T05:38:47;9.75;;;6.95;;
58302;SDS011;44109;52.398;7.024;2022-10-31T05:41:14;11.93;;;7.20;;
58302;SDS011;44109;52.398;7.024;2022-10-31T05:43:42;11.77;;;7.57;;
58302;SDS011;44109;52.398;7.024;2022-10-31T05:46:09;10.50;;;6.32;;
58302;SDS011;44109;52.398;7.024;2022-10-31T05:48:38;13.10;;;7.25;;
58302;SDS011;44109;52.398;7.024;2022-10-31T05:51:06;11.75;;;7.32;;
58302;SDS011;44109;52.398;7.024;2022-10-31T05:53:33;10.73;;;6.85;;
58302;SDS011;44109;52.398;7.024;2022-10-31T05:56:01;9.48;;;6.70;;
58302;SDS011;44109;52.398;7.024;2022-10-31T05:58:28;20.27;;;8.05;;
58302;SDS011;44109;52.398;7.024;2022-10-31T06:00:56;10.73;;;6.45;;
58302;SDS011;44109;52.398;7.024;2022-10-31T06:03:23;9.23;;;6.35;;
58302;SDS011;44109;52.398;7.024;2022-10-31T06:05:52;9.57;;;6.28;;
58302;SDS011;44109;52.398;7.024;2022-10-31T06:08:20;7.85;;;6.28;;
58302;SDS011;44109;52.398;7.024;2022-10-31T06:10:47;9.07;;;6.63;;
58302;SDS011;44109;52.398;7.024;2022-10-31T06:13:15;8.88;;;5.30;;
58302;SDS011;44109;52.398;7.024;2022-10-31T06:15:42;8.77;;;5.55;;
58302;SDS011;44109;52.398;7.024;2022-10-31T06:18:10;10.55;;;6.05;;
58302;SDS011;44109;52.398;7.024;2022-10-31T06:20:37;8.13;;;5.40;;
58302;SDS011;44109;52.398;7.024;2022-10-31T06:23:06;7.28;;;5.00;;
58302;SDS011;44109;52.398;7.024;2022-10-31T06:25:34;8.10;;;5.30;;
58302;SDS011;44109;52.398;7.024;2022-10-31T06:28:02;7.80;;;6.03;;
58302;SDS011;44109;52.398;7.024;2022-10-31T06:30:30;7.55;;;5.22;;
58302;SDS011;44109;52.398;7.024;2022-10-31T06:33:01;6.88;;;5.30;;
58302;SDS011;44109;52.398;7.024;2022-10-31T06:35:30;8.50;;;5.65;;
58302;SDS011;44109;52.398;7.024;2022-10-31T06:37:58;7.45;;;4.82;;
58302;SDS011;44109;52.398;7.024;2022-10-31T06:40:27;7.00;;;4.63;;
58302;SDS011;44109;52.398;7.024;2022-10-31T06:42:57;7.25;;;5.07;;
58302;SDS011;44109;52.398;7.024;2022-10-31T06:45:25;6.07;;;4.63;;
58302;SDS011;44109;52.398;7.024;2022-10-31T06:47:54;5.82;;;3.85;;
58302;SDS011;44109;52.398;7.024;2022-10-31T06:50:23;6.25;;;4.78;;
58302;SDS011;44109;52.398;7.024;2022-10-31T06:52:51;6.82;;;5.00;;
58302;SDS011;44109;52.398;7.024;2022-10-31T06:55:19;5.78;;;4.20;;
58302;SDS011;44109;52.398;7.024;2022-10-31T06:57:52;4.95;;;3.28;;
58302;SDS011;44109;52.398;7.024;2022-10-31T07:00:20;4.72;;;3.60;;
58302;SDS011;44109;52.398;7.024;2022-10-31T07:02:55;6.90;;;3.97;;
58302;SDS011;44109;52.398;7.024;2022-10-31T07:05:23;6.10;;;4.55;;
58302;SDS011;44109;52.398;7.024;2022-10-31T07:07:52;7.60;;;4.65;;
58302;SDS011;44109;52.398;7.024;2022-10-31T07:10:20;6.90;;;4.68;;
58302;SDS011;44109;52.398;7.024;2022-10-31T07:12:54;6.90;;;4.70;;
58302;SDS011;44109;52.398;7.024;2022-10-31T07:15:22;7.38;;;5.75;;
58302;SDS011;44109;52.398;7.024;2022-10-31T07:17:50;7.22;;;4.93;;
58302;SDS011;44109;52.398;7.024;2022-10-31T07:20:18;8.75;;;5.90;;
58302;SDS011;44109;52.398;7.024;2022-10-31T07:22:46;7.95;;;5.05;;
58302;SDS011;44109;52.398;7.024;2022-10-31T07:25:13;8.02;;;5.47;;
58302;SDS011;44109;52.398;7.024;2022-10-31T07:27:42;5.90;;;4.38;;
58302;SDS011;44109;52.398;7.024;2022-10-31T07:30:11;8.90;;;6.43;;
58302;SDS011;44109;52.398;7.024;2022-10-31T07:32:43;7.28;;;4.57;;
58302;SDS011;44109;52.398;7.024;2022-10-31T07:35:12;8.85;;;5.03;;
58302;SDS011;44109;52.398;7.024;2022-10-31T07:37:43;7.05;;;4.65;;
58302;SDS011;44109;52.398;7.024;2022-10-31T07:40:10;6.78;;;4.95;;
58302;SDS011;44109;52.398;7.024;2022-10-31T07:42:40;6.97;;;4.72;;
58302;SDS011;44109;52.398;7.024;2022-10-31T07:45:13;7.15;;;5.40;;
58302;SDS011;44109;52.398;7.024;2022-10-31T07:47:43;8.02;;;5.18;;
58302;SDS011;44109;52.398;7.024;2022-10-31T07:50:14;7.95;;;6.03;;
58302;SDS011;44109;52.398;7.024;2022-10-31T07:52:43;8.98;;;5.78;;
58302;SDS011;44109;52.398;7.024;2022-10-31T07:55:11;7.75;;;5.50;;
58302;SDS011;44109;52.398;7.024;2022-10-31T07:57:40;8.40;;;5.63;;
58302;SDS011;44109;52.398;7.024;2022-10-31T08:00:08;9.40;;;6.30;;
58302;SDS011;44109;52.398;7.024;2022-10-31T08:02:39;9.05;;;6.38;;
58302;SDS011;44109;52.398;7.024;2022-10-31T08:05:06;11.32;;;6.68;;
58302;SDS011;44109;52.398;7.024;2022-10-31T08:07:35;14.07;;;8.90;;
58302;SDS011;44109;52.398;7.024;2022-10-31T08:10:04;8.88;;;6.65;;
58302;SDS011;44109;52.398;7.024;2022-10-31T08:12:32;8.60;;;6.43;;
58302;SDS011;44109;52.398;7.024;2022-10-31T08:15:00;11.18;;;7.72;;
58302;SDS011;44109;52.398;7.024;2022-10-31T08:17:29;15.48;;;8.85;;
58302;SDS011;44109;52.398;7.024;2022-10-31T08:19:56;13.55;;;8.13;;
58302;SDS011;44109;52.398;7.024;2022-10-31T08:22:24;14.55;;;9.75;;
58302;SDS011;44109;52.398;7.024;2022-10-31T08:24:52;17.75;;;11.70;;
58302;SDS011;44109;52.398;7.024;2022-10-31T08:27:19;19.80;;;11.57;;
58302;SDS011;44109;52.398;7.024;2022-10-31T08:29:47;19.55;;;12.75;;
58302;SDS011;44109;52.398;7.024;2022-10-31T08:32:14;19.08;;;13.15;;
58302;SDS011;44109;52.398;7.024;2022-10-31T08:34:43;18.45;;;13.43;;
58302;SDS011;44109;52.398;7.024;2022-10-31T08:37:11;23.95;;;15.25;;
58302;SDS011;44109;52.398;7.024;2022-10-31T08:39:38;18.00;;;13.05;;
58302;SDS011;44109;52.398;7.024;2022-10-31T08:42:06;21.85;;;13.65;;
58302;SDS011;44109;52.398;7.024;2022-10-31T08:44:33;21.75;;;13.57;;
58302;SDS011;44109;52.398;7.024;2022-10-31T08:47:01;19.23;;;13.45;;
58302;SDS011;44109;52.398;7.024;2022-10-31T08:49:28;21.98;;;14.85;;
58302;SDS011;44109;52.398;7.024;2022-10-31T08:51:57;24.58;;;14.68;;
58302;SDS011;44109;52.398;7.024;2022-10-31T08:54:25;21.67;;;13.18;;
58302;SDS011;44109;52.398;7.024;2022-10-31T08:56:53;24.42;;;15.77;;
58302;SDS011;44109;52.398;7.024;2022-10-31T08:59:22;21.15;;;13.07;;
58302;SDS011;44109;52.398;7.024;2022-10-31T09:01:49;22.52;;;15.02;;
58302;SDS011;44109;52.398;7.024;2022-10-31T09:04:17;21.67;;;13.55;;
58302;SDS011;44109;52.398;7.024;2022-10-31T09:06:44;20.30;;;13.23;;
58302;SDS011;44109;52.398;7.024;2022-10-31T09:09:13;19.15;;;13.45;;
58302;SDS011;44109;52.398;7.024;2022-10-31T09:11:41;23.70;;;14.93;;
58302;SDS011;44109;52.398;7.024;2022-10-31T09:14:08;21.88;;;14.02;;
58302;SDS011;44109;52.398;7.024;2022-10-31T09:16:36;27.58;;;17.10;;
58302;SDS011;44109;52.398;7.024;2022-10-31T09:19:03;25.73;;;14.98;;
58302;SDS011;44109;52.398;7.024;2022-10-31T09:21:31;23.15;;;14.55;;
58302;SDS011;44109;52.398;7.024;2022-10-31T09:23:59;25.17;;;16.85;;
58302;SDS011;44109;52.398;7.024;2022-10-31T09:26:27;25.83;;;16.40;;
58302;SDS011;44109;52.398;7.024;2022-10-31T09:28:56;23.42;;;13.82;;
58302;SDS011;44109;52.398;7.024;2022-10-31T09:31:24;19.80;;;12.63;;
58302;SDS011;44109;52.398;7.024;2022-10-31T09:33:52;20.25;;;14.05;;
58302;SDS011;44109;52.398;7.024;2022-10-31T09:36:20;23.92;;;14.93;;
58302;SDS011;44109;52.398;7.024;2022-10-31T09:38:48;21.75;;;13.77;;
58302;SDS011;44109;52.398;7.024;2022-10-31T09:41:19;23.88;;;15.05;;
58302;SDS011;44109;52.398;7.024;2022-10-31T09:44:00;20.95;;;14.85;;
58302;SDS011;44109;52.398;7.024;2022-10-31T09:46:48;24.17;;;14.85;;
58302;SDS011;44109;52.398;7.024;2022-10-31T09:52:30;24.35;;;15.90;;
58302;SDS011;44109;52.398;7.024;2022-10-31T09:57:40;25.27;;;15.23;;
58302;SDS011;44109;52.398;7.024;2022-10-31T10:00:11;25.40;;;15.35;;
58302;SDS011;44109;52.398;7.024;2022-10-31T10:02:46;17.80;;;11.88;;
58302;SDS011;44109;52.398;7.024;2022-10-31T10:05:20;17.83;;;10.27;;
58302;SDS011;44109;52.398;7.024;2022-10-31T10:08:00;20.77;;;12.98;;
58302;SDS011;44109;52.398;7.024;2022-10-31T10:10:40;22.00;;;13.07;;
58302;SDS011;44109;52.398;7.024;2022-10-31T10:13:25;17.05;;;12.43;;
58302;SDS011;44109;52.398;7.024;2022-10-31T10:16:14;19.80;;;11.93;;
58302;SDS011;44109;52.398;7.024;2022-10-31T10:19:02;19.08;;;12.52;;
58302;SDS011;44109;52.398;7.024;2022-10-31T10:21:51;22.17;;;12.38;;
58302;SDS011;44109;52.398;7.024;2022-10-31T10:24:32;16.60;;;11.48;;
58302;SDS011;44109;52.398;7.024;2022-10-31T10:27:21;26.88;;;11.15;;
58302;SDS011;44109;52.398;7.024;2022-10-31T10:30:04;14.70;;;10.82;;
58302;SDS011;44109;52.398;7.024;2022-10-31T10:32:43;17.30;;;10.93;;
58302;SDS011;44109;52.398;7.024;2022-10-31T10:35:22;14.73;;;9.50;;
58302;SDS011;44109;52.398;7.024;2022-10-31T10:37:56;14.65;;;9.80;;
58302;SDS011;44109;52.398;7.024;2022-10-31T10:40:29;15.95;;;9.90;;
58302;SDS011;44109;52.398;7.024;2022-10-31T10:43:01;14.38;;;9.98;;
58302;SDS011;44109;52.398;7.024;2022-10-31T10:45:48;16.40;;;9.18;;
58302;SDS011;44109;52.398;7.024;2022-10-31T10:48:42;18.48;;;9.15;;
58302;SDS011;44109;52.398;7.024;2022-10-31T10:51:16;11.48;;;7.53;;
58302;SDS011;44109;52.398;7.024;2022-10-31T10:53:53;13.90;;;7.30;;
58302;SDS011;44109;52.398;7.024;2022-10-31T10:56:41;12.60;;;6.78;;
58302;SDS011;44109;52.398;7.024;2022-10-31T10:59:23;10.50;;;6.78;;
58302;SDS011;44109;52.398;7.024;2022-10-31T11:01:53;11.57;;;6.22;;
58302;SDS011;44109;52.398;7.024;2022-10-31T11:04:25;17.08;;;7.53;;
58302;SDS011;44109;52.398;7.024;2022-10-31T11:06:58;14.40;;;7.57;;
58302;SDS011;44109;52.398;7.024;2022-10-31T11:09:28;15.70;;;9.65;;
58302;SDS011;44109;52.398;7.024;2022-10-31T11:11:56;12.77;;;7.85;;
58302;SDS011;44109;52.398;7.024;2022-10-31T11:14:25;12.68;;;8.48;;
58302;SDS011;44109;52.398;7.024;2022-10-31T11:17:10;13.35;;;8.45;;
58302;SDS011;44109;52.398;7.024;2022-10-31T11:19:47;12.82;;;7.10;;
58302;SDS011;44109;52.398;7.024;2022-10-31T11:22:16;13.05;;;7.63;;
58302;SDS011;44109;52.398;7.024;2022-10-31T11:24:44;8.05;;;4.80;;
58302;SDS011;44109;52.398;7.024;2022-10-31T11:27:13;10.00;;;5.20;;
58302;SDS011;44109;52.398;7.024;2022-10-31T11:29:46;8.40;;;4.80;;
58302;SDS011;44109;52.398;7.024;2022-10-31T11:32:18;11.10;;;6.05;;
58302;SDS011;44109;52.398;7.024;2022-10-31T11:34:50;10.05;;;5.95;;
58302;SDS011;44109;52.398;7.024;2022-10-31T11:37:23;8.57;;;5.60;;
58302;SDS011;44109;52.398;7.024;2022-10-31T11:39:54;7.35;;;5.13;;
58302;SDS011;44109;52.398;7.024;2022-10-31T11:42:26;8.95;;;5.35;;
58302;SDS011;44109;52.398;7.024;2022-10-31T11:45:13;9.32;;;5.40;;
58302;SDS011;44109;52.398;7.024;2022-10-31T11:47:44;11.70;;;5.80;;
58302;SDS011;44109;52.398;7.024;2022-10-31T11:50:18;7.57;;;4.50;;
58302;SDS011;44109;52.398;7.024;2022-10-31T11:52:49;9.53;;;5.60;;
58302;SDS011;44109;52.398;7.024;2022-10-31T11:55:29;8.65;;;5.63;;
58302;SDS011;44109;52.398;7.024;2022-10-31T11:58:00;10.35;;;5.85;;
58302;SDS011;44109;52.398;7.024;2022-10-31T12:00:28;9.45;;;5.60;;
58302;SDS011;44109;52.398;7.024;2022-10-31T12:03:12;10.02;;;6.45;;
58302;SDS011;44109;52.398;7.024;2022-10-31T12:06:00;8.48;;;4.93;;
58302;SDS011;44109;52.398;7.024;2022-10-31T12:08:35;8.23;;;5.07;;
58302;SDS011;44109;52.398;7.024;2022-10-31T12:11:06;9.13;;;5.75;;
58302;SDS011;44109;52.398;7.024;2022-10-31T12:14:05;9.70;;;6.28;;
58302;SDS011;44109;52.398;7.024;2022-10-31T12:16:49;10.00;;;6.10;;
58302;SDS011;44109;52.398;7.024;2022-10-31T12:19:27;19.15;;;8.30;;
58302;SDS011;44109;52.398;7.024;2022-10-31T12:22:08;9.63;;;6.63;;
58302;SDS011;44109;52.398;7.024;2022-10-31T12:25:03;12.48;;;6.25;;
58302;SDS011;44109;52.398;7.024;2022-10-31T12:28:00;13.18;;;6.53;;
58302;SDS011;44109;52.398;7.024;2022-10-31T12:31:05;11.43;;;6.95;;
58302;SDS011;44109;52.398;7.024;2022-10-31T12:33:56;12.40;;;8.57;;
58302;SDS011;44109;52.398;7.024;2022-10-31T12:36:57;9.35;;;6.82;;
58302;SDS011;44109;52.398;7.024;2022-10-31T12:39:42;12.75;;;7.07;;
58302;SDS011;44109;52.398;7.024;2022-10-31T12:42:34;12.00;;;7.53;;
58302;SDS011;44109;52.398;7.024;2022-10-31T12:45:30;12.73;;;7.72;;
58302;SDS011;44109;52.398;7.024;2022-10-31T12:51:24;9.35;;;7.03;;
58302;SDS011;44109;52.398;7.024;2022-10-31T12:54:15;10.77;;;7.80;;
58302;SDS011;44109;52.398;7.024;2022-10-31T12:57:02;11.75;;;7.35;;
58302;SDS011;44109;52.398;7.024;2022-10-31T13:02:16;11.18;;;8.00;;
58302;SDS011;44109;52.398;7.024;2022-10-31T13:04:54;12.15;;;8.07;;
58302;SDS011;44109;52.398;7.024;2022-10-31T13:07:28;15.63;;;7.78;;
58302;SDS011;44109;52.398;7.024;2022-10-31T13:10:16;14.05;;;8.60;;
58302;SDS011;44109;52.398;7.024;2022-10-31T13:12:52;14.00;;;8.50;;
58302;SDS011;44109;52.398;7.024;2022-10-31T13:15:26;16.63;;;8.80;;
58302;SDS011;44109;52.398;7.024;2022-10-31T13:18:00;16.60;;;8.65;;
58302;SDS011;44109;52.398;7.024;2022-10-31T13:20:40;14.50;;;9.35;;
58302;SDS011;44109;52.398;7.024;2022-10-31T13:23:14;20.17;;;9.43;;
58302;SDS011;44109;52.398;7.024;2022-10-31T13:25:55;15.80;;;9.68;;
58302;SDS011;44109;52.398;7.024;2022-10-31T13:28:27;17.63;;;10.45;;
58302;SDS011;44109;52.398;7.024;2022-10-31T13:31:06;15.57;;;10.48;;
58302;SDS011;44109;52.398;7.024;2022-10-31T13:33:34;16.85;;;11.20;;
58302;SDS011;44109;52.398;7.024;2022-10-31T13:36:11;19.50;;;9.80;;
58302;SDS011;44109;52.398;7.024;2022-10-31T13:38:51;19.50;;;11.18;;
58302;SDS011;44109;52.398;7.024;2022-10-31T13:41:31;24.58;;;13.30;;
58302;SDS011;44109;52.398;7.024;2022-10-31T13:44:13;21.98;;;11.90;;
58302;SDS011;44109;52.398;7.024;2022-10-31T13:49:24;22.25;;;12.43;;
58302;SDS011;44109;52.398;7.024;2022-10-31T13:52:05;23.42;;;13.73;;
58302;SDS011;44109;52.398;7.024;2022-10-31T13:54:42;20.85;;;13.50;;
58302;SDS011;44109;52.398;7.024;2022-10-31T13:57:17;30.27;;;14.55;;
58302;SDS011;44109;52.398;7.024;2022-10-31T13:59:50;29.45;;;15.85;;
58302;SDS011;44109;52.398;7.024;2022-10-31T14:02:23;26.42;;;15.32;;
58302;SDS011;44109;52.398;7.024;2022-10-31T14:04:56;26.42;;;14.85;;
58302;SDS011;44109;52.398;7.024;2022-10-31T14:07:28;24.25;;;13.55;;
58302;SDS011;44109;52.398;7.024;2022-10-31T14:09:59;24.17;;;13.98;;
58302;SDS011;44109;52.398;7.024;2022-10-31T14:12:38;22.70;;;13.68;;
58302;SDS011;44109;52.398;7.024;2022-10-31T14:15:13;23.27;;;12.82;;
58302;SDS011;44109;52.398;7.024;2022-10-31T14:17:46;22.88;;;14.25;;
58302;SDS011;44109;52.398;7.024;2022-10-31T14:20:34;26.92;;;14.10;;
58302;SDS011;44109;52.398;7.024;2022-10-31T14:26:19;26.15;;;16.13;;
58302;SDS011;44109;52.398;7.024;2022-10-31T14:29:01;20.90;;;13.57;;
58302;SDS011;44109;52.398;7.024;2022-10-31T14:31:54;25.55;;;16.80;;
58302;SDS011;44109;52.398;7.024;2022-10-31T14:34:27;24.70;;;15.45;;
58302;SDS011;44109;52.398;7.024;2022-10-31T14:40:07;26.23;;;16.55;;
58302;SDS011;44109;52.398;7.024;2022-10-31T14:46:25;22.42;;;15.48;;
58302;SDS011;44109;52.398;7.024;2022-10-31T14:49:18;29.70;;;16.38;;
58302;SDS011;44109;52.398;7.024;2022-10-31T14:52:06;21.83;;;14.40;;
58302;SDS011;44109;52.398;7.024;2022-10-31T14:54:36;26.00;;;15.35;;
58302;SDS011;44109;52.398;7.024;2022-10-31T14:57:13;25.70;;;14.60;;
58302;SDS011;44109;52.398;7.024;2022-10-31T14:59:47;23.15;;;13.95;;
58302;SDS011;44109;52.398;7.024;2022-10-31T15:02:20;24.23;;;13.32;;
58302;SDS011;44109;52.398;7.024;2022-10-31T15:04:53;23.38;;;14.10;;
58302;SDS011;44109;52.398;7.024;2022-10-31T15:07:25;26.17;;;14.90;;
58302;SDS011;44109;52.398;7.024;2022-10-31T15:09:57;20.98;;;12.52;;
58302;SDS011;44109;52.398;7.024;2022-10-31T15:12:27;22.27;;;14.10;;
58302;SDS011;44109;52.398;7.024;2022-10-31T15:14:57;25.40;;;16.05;;
58302;SDS011;44109;52.398;7.024;2022-10-31T15:17:41;25.42;;;14.15;;
58302;SDS011;44109;52.398;7.024;2022-10-31T15:20:17;26.77;;;15.07;;
58302;SDS011;44109;52.398;7.024;2022-10-31T15:22:48;24.15;;;15.23;;
58302;SDS011;44109;52.398;7.024;2022-10-31T15:25:18;30.02;;;16.20;;
58302;SDS011;44109;52.398;7.024;2022-10-31T15:27:50;28.77;;;16.25;;
58302;SDS011;44109;52.398;7.024;2022-10-31T15:30:20;22.00;;;13.05;;
58302;SDS011;44109;52.398;7.024;2022-10-31T15:32:51;23.15;;;15.93;;
58302;SDS011;44109;52.398;7.024;2022-10-31T15:35:20;32.80;;;16.92;;
58302;SDS011;44109;52.398;7.024;2022-10-31T15:37:51;27.65;;;16.20;;